createdAt,value
2022-10-07T00:01:12.230Z,9.85
2022-10-07T00:03:40.481Z,9.86
2022-10-07T00:06:13.230Z,9.90
2022-10-07T00:08:45.072Z,9.90
2022-10-07T00:11:17.271Z,9.91
2022-10-07T00:13:47.521Z,9.92
2022-10-07T00:16:18.252Z,9.93
2022-10-07T00:18:46.493Z,9.98
2022-10-07T00:21:16.676Z,9.96
2022-10-07T00:23:47.757Z,9.95
2022-10-07T00:26:18.078Z,9.94
2022-10-07T00:28:46.692Z,10.01
2022-10-07T00:31:17.567Z,10.03
2022-10-07T00:33:46.608Z,9.99
2022-10-07T00:36:17.704Z,10.03
2022-10-07T00:38:51.342Z,9.98
2022-10-07T00:41:21.237Z,9.89
2022-10-07T00:43:50.706Z,9.93
2022-10-07T00:46:29.359Z,9.94
2022-10-07T00:48:59.994Z,9.93
2022-10-07T00:51:29.132Z,9.93
2022-10-07T00:53:58.631Z,9.86
2022-10-07T00:56:28.089Z,9.76
2022-10-07T00:58:58.877Z,9.78
2022-10-07T01:01:27.721Z,9.76
2022-10-07T01:03:56.582Z,9.71
2022-10-07T01:06:25.977Z,9.71
2022-10-07T01:08:55.673Z,9.64
2022-10-07T01:11:41.503Z,9.61
2022-10-07T01:14:16.365Z,9.57
2022-10-07T01:16:52.173Z,9.56
2022-10-07T01:19:52.441Z,9.53
2022-10-07T01:22:30.040Z,9.48
2022-10-07T01:25:14.197Z,9.48
2022-10-07T01:27:50.179Z,9.39
2022-10-07T01:30:19.416Z,9.35
2022-10-07T01:32:53.995Z,9.30
2022-10-07T01:35:27.020Z,9.36
2022-10-07T01:38:00.211Z,9.33
2022-10-07T01:40:33.534Z,9.34
2022-10-07T01:43:03.878Z,9.33
2022-10-07T01:45:35.010Z,9.32
2022-10-07T01:48:04.132Z,9.31
2022-10-07T01:50:34.002Z,9.27
2022-10-07T01:53:21.003Z,9.33
2022-10-07T01:56:03.373Z,9.22
2022-10-07T01:58:48.177Z,9.11
2022-10-07T02:01:22.715Z,9.11
2022-10-07T02:04:18.551Z,9.12
2022-10-07T02:06:58.148Z,9.09
2022-10-07T02:09:32.538Z,9.09
2022-10-07T02:12:10.025Z,9.08
2022-10-07T02:14:46.129Z,9.07
2022-10-07T02:17:18.539Z,8.96
2022-10-07T02:19:53.352Z,9.04
2022-10-07T02:22:24.820Z,8.93
2022-10-07T02:24:55.394Z,8.93
2022-10-07T02:27:29.180Z,9.03
2022-10-07T02:30:04.477Z,9.02
2022-10-07T02:32:36.003Z,9.01
2022-10-07T02:35:13.231Z,9.05
2022-10-07T02:37:44.485Z,8.97
2022-10-07T02:40:12.988Z,9.02
2022-10-07T02:42:51.800Z,9.02
2022-10-07T02:45:30.243Z,9.02
2022-10-07T02:48:03.871Z,9.00
2022-10-07T02:50:38.389Z,8.98
2022-10-07T02:53:08.626Z,8.97
2022-10-07T02:55:37.254Z,8.96
2022-10-07T02:58:09.438Z,9.03
2022-10-07T03:00:46.277Z,9.04
2022-10-07T03:03:16.230Z,9.09
2022-10-07T03:05:58.610Z,9.04
2022-10-07T03:08:28.010Z,8.95
2022-10-07T03:10:57.444Z,8.98
2022-10-07T03:13:26.420Z,8.97
2022-10-07T03:16:00.651Z,9.05
2022-10-07T03:18:30.706Z,9.04
2022-10-07T03:21:22.136Z,9.06
2022-10-07T03:23:54.278Z,9.02
2022-10-07T03:26:26.177Z,9.00
2022-10-07T03:28:55.242Z,9.09
2022-10-07T03:31:25.379Z,9.04
2022-10-07T03:33:57.977Z,8.94
2022-10-07T03:36:26.727Z,9.01
2022-10-07T03:38:55.764Z,9.01
2022-10-07T03:41:25.044Z,8.96
2022-10-07T03:43:59.405Z,8.94
2022-10-07T03:46:30.641Z,8.95
2022-10-07T03:48:59.480Z,8.93
2022-10-07T03:51:29.306Z,8.89
2022-10-07T03:53:59.075Z,8.90
2022-10-07T03:56:31.674Z,8.86
2022-10-07T03:59:01.667Z,8.90
2022-10-07T04:01:31.592Z,8.91
2022-10-07T04:04:03.616Z,8.85
2022-10-07T04:06:37.893Z,8.91
2022-10-07T04:09:10.636Z,8.97
2022-10-07T04:11:41.583Z,8.97
2022-10-07T04:14:10.636Z,8.97
2022-10-07T04:16:42.098Z,9.04
2022-10-07T04:19:13.691Z,9.07
2022-10-07T04:21:44.490Z,9.06
2022-10-07T04:24:12.932Z,9.02
2022-10-07T04:26:41.175Z,9.05
2022-10-07T04:29:09.780Z,9.05
2022-10-07T04:31:38.190Z,9.11
2022-10-07T04:34:08.562Z,9.06
2022-10-07T04:36:40.715Z,9.05
2022-10-07T04:39:12.153Z,9.02
2022-10-07T04:41:47.003Z,9.03
2022-10-07T04:44:19.785Z,8.98
2022-10-07T04:46:56.821Z,8.89
2022-10-07T04:49:28.836Z,8.94
2022-10-07T04:51:59.633Z,8.92
2022-10-07T04:54:34.215Z,8.92
2022-10-07T04:57:02.501Z,8.85
2022-10-07T04:59:31.633Z,8.76
2022-10-07T05:02:00.563Z,8.70
2022-10-07T05:04:31.387Z,8.68
2022-10-07T05:07:00.138Z,8.65
2022-10-07T05:09:29.924Z,8.66
2022-10-07T05:11:58.184Z,8.67
2022-10-07T05:14:26.898Z,8.65
2022-10-07T05:16:57.292Z,8.65
2022-10-07T05:19:29.227Z,8.64
2022-10-07T05:21:58.926Z,8.72
2022-10-07T05:24:27.700Z,8.70
2022-10-07T05:26:56.280Z,8.73
2022-10-07T05:29:24.900Z,8.76
2022-10-07T05:31:55.131Z,8.74
2022-10-07T05:34:26.838Z,8.87
2022-10-07T05:36:56.079Z,9.00
2022-10-07T05:39:26.061Z,9.01
2022-10-07T05:41:59.665Z,9.11
2022-10-07T05:44:34.879Z,9.16
2022-10-07T05:47:04.737Z,9.21
2022-10-07T05:49:33.701Z,9.24
2022-10-07T05:52:01.833Z,9.20
2022-10-07T05:54:32.780Z,9.24
2022-10-07T05:57:01.245Z,9.23
2022-10-07T05:59:31.103Z,9.26
2022-10-07T06:02:00.362Z,9.22
2022-10-07T06:04:29.598Z,9.25
2022-10-07T06:06:57.922Z,9.26
2022-10-07T06:09:44.254Z,9.23
2022-10-07T06:12:35.372Z,9.23
2022-10-07T06:15:10.193Z,9.25
2022-10-07T06:17:44.263Z,9.22
2022-10-07T06:20:15.349Z,9.20
2022-10-07T06:22:45.368Z,9.21
2022-10-07T06:25:15.517Z,9.20
2022-10-07T06:27:51.154Z,9.16
2022-10-07T06:30:22.257Z,9.15
2022-10-07T06:32:50.533Z,9.20
2022-10-07T06:35:18.891Z,9.24
2022-10-07T06:37:47.861Z,9.20
2022-10-07T06:40:16.621Z,9.17
2022-10-07T06:42:46.342Z,9.23
2022-10-07T06:45:43.368Z,9.27
2022-10-07T06:48:13.314Z,9.31
2022-10-07T06:50:50.205Z,9.38
2022-10-07T06:53:18.688Z,9.46
2022-10-07T06:55:47.189Z,9.54
2022-10-07T06:58:16.691Z,9.65
2022-10-07T07:00:49.274Z,9.74
2022-10-07T07:03:17.955Z,9.77
2022-10-07T07:05:49.709Z,9.85
2022-10-07T07:08:21.056Z,9.95
2022-10-07T07:10:49.877Z,9.98
2022-10-07T07:13:20.315Z,10.05
2022-10-07T07:15:55.998Z,10.08
2022-10-07T07:18:24.986Z,10.11
2022-10-07T07:20:53.923Z,10.15
2022-10-07T07:23:22.958Z,10.21
2022-10-07T07:25:51.191Z,10.34
2022-10-07T07:28:20.843Z,10.45
2022-10-07T07:30:50.520Z,10.43
2022-10-07T07:33:18.978Z,10.48
2022-10-07T07:35:47.159Z,10.54
2022-10-07T07:38:15.598Z,10.66
2022-10-07T07:40:44.083Z,10.79
2022-10-07T07:43:12.258Z,10.84
2022-10-07T07:45:41.813Z,10.94
2022-10-07T07:48:12.011Z,11.04
2022-10-07T07:50:41.385Z,11.13
2022-10-07T07:53:10.288Z,11.30
2022-10-07T07:55:38.434Z,11.36
2022-10-07T07:58:11.738Z,11.47
2022-10-07T08:00:42.682Z,11.59
2022-10-07T08:03:11.131Z,11.64
2022-10-07T08:05:39.282Z,11.78
2022-10-07T08:08:07.576Z,11.90
2022-10-07T08:10:37.115Z,12.05
2022-10-07T08:13:05.277Z,12.06
2022-10-07T08:15:33.506Z,12.17
2022-10-07T08:18:03.375Z,12.25
2022-10-07T08:20:31.615Z,12.37
2022-10-07T08:23:01.097Z,12.49
2022-10-07T08:25:29.636Z,12.57
2022-10-07T08:27:59.860Z,12.74
2022-10-07T08:30:28.644Z,12.86
2022-10-07T08:33:01.385Z,12.87
2022-10-07T08:35:31.190Z,12.96
2022-10-07T08:37:59.342Z,13.21
2022-10-07T08:40:27.586Z,13.40
2022-10-07T08:42:55.973Z,13.37
2022-10-07T08:45:34.175Z,13.45
2022-10-07T08:48:08.289Z,13.54
2022-10-07T08:50:49.562Z,13.77
2022-10-07T08:53:22.293Z,13.95
2022-10-07T08:55:53.973Z,13.83
2022-10-07T08:58:46.724Z,14.01
2022-10-07T09:01:32.148Z,14.17
2022-10-07T09:04:15.284Z,14.28
2022-10-07T09:06:52.143Z,14.34
2022-10-07T09:09:27.600Z,14.37
2022-10-07T09:11:58.909Z,14.52
2022-10-07T09:14:29.953Z,14.73
2022-10-07T09:17:03.489Z,14.80
2022-10-07T09:19:34.544Z,14.67
2022-10-07T09:22:11.066Z,14.77
2022-10-07T09:24:39.719Z,14.95
2022-10-07T09:27:15.996Z,15.03
2022-10-07T09:29:44.348Z,14.97
2022-10-07T09:32:14.128Z,15.07
2022-10-07T09:34:42.709Z,15.27
2022-10-07T09:37:19.170Z,15.49
2022-10-07T09:39:49.249Z,15.58
2022-10-07T09:42:29.744Z,15.68
2022-10-07T09:45:01.215Z,15.67
2022-10-07T09:47:33.357Z,15.87
2022-10-07T09:50:01.609Z,15.92
2022-10-07T09:52:32.181Z,16.04
2022-10-07T09:55:32.007Z,16.11
2022-10-07T09:58:02.017Z,16.22
2022-10-07T10:00:31.334Z,16.41
2022-10-07T10:03:06.331Z,16.20
2022-10-07T10:05:36.204Z,16.15
2022-10-07T10:08:11.252Z,16.10
2022-10-07T10:10:39.532Z,16.22
2022-10-07T10:13:08.302Z,16.27
2022-10-07T10:15:43.125Z,16.59
2022-10-07T10:18:39.286Z,16.64
2022-10-07T10:21:25.302Z,16.84
2022-10-07T10:23:58.054Z,16.72
2022-10-07T10:27:01.595Z,16.82
2022-10-07T10:29:47.342Z,16.85
2022-10-07T10:32:32.130Z,16.86
2022-10-07T10:35:06.069Z,17.23
2022-10-07T10:37:58.372Z,17.24
2022-10-07T10:40:36.317Z,17.18
2022-10-07T10:43:16.473Z,17.38
2022-10-07T10:45:52.534Z,17.34
2022-10-07T10:48:30.437Z,17.45
2022-10-07T10:51:10.235Z,17.52
2022-10-07T10:53:50.005Z,17.72
2022-10-07T10:56:34.330Z,17.64
2022-10-07T10:59:17.236Z,17.73
2022-10-07T11:01:47.989Z,17.52
2022-10-07T11:04:25.791Z,17.62
2022-10-07T11:06:59.655Z,17.59
2022-10-07T11:09:35.028Z,18.03
2022-10-07T11:12:08.371Z,17.81
2022-10-07T11:14:48.510Z,17.74
2022-10-07T11:17:19.035Z,18.06
2022-10-07T11:19:54.251Z,17.78
2022-10-07T11:22:33.013Z,17.99
2022-10-07T11:25:08.335Z,17.90
2022-10-07T11:27:38.122Z,17.80
2022-10-07T11:30:16.678Z,17.85
2022-10-07T11:32:49.284Z,18.06
2022-10-07T11:35:25.749Z,18.13
2022-10-07T11:38:01.090Z,18.17
2022-10-07T11:40:34.330Z,18.46
2022-10-07T11:43:09.745Z,18.46
2022-10-07T11:45:43.918Z,18.55
2022-10-07T11:48:19.532Z,18.49
2022-10-07T11:50:52.795Z,18.39
2022-10-07T11:53:24.222Z,18.23
2022-10-07T11:55:59.648Z,18.09
2022-10-07T11:58:33.194Z,18.32
2022-10-07T12:01:41.048Z,18.56
2022-10-07T12:04:45.914Z,18.78
2022-10-07T12:07:40.276Z,18.63
2022-10-07T12:10:32.419Z,18.39
2022-10-07T12:13:22.646Z,18.70
2022-10-07T12:15:53.262Z,18.80
2022-10-07T12:18:30.487Z,18.57
2022-10-07T12:21:07.862Z,18.67
2022-10-07T12:23:41.342Z,18.92
2022-10-07T12:26:52.164Z,19.02
2022-10-07T12:29:45.510Z,18.82
2022-10-07T12:32:56.316Z,18.59
2022-10-07T12:35:54.835Z,18.53
2022-10-07T12:38:26.266Z,18.52
2022-10-07T12:41:24.909Z,18.81
2022-10-07T12:44:04.580Z,19.00
2022-10-07T12:46:39.363Z,19.10
2022-10-07T12:49:17.111Z,18.67
2022-10-07T12:51:46.300Z,18.46
2022-10-07T12:54:20.177Z,18.15
2022-10-07T12:56:49.781Z,17.95
2022-10-07T12:59:47.454Z,18.71
2022-10-07T13:02:35.949Z,18.88
2022-10-07T13:05:37.048Z,19.27
2022-10-07T13:08:33.844Z,19.17
2022-10-07T13:11:33.708Z,19.09
2022-10-07T13:14:07.440Z,19.05
2022-10-07T13:16:40.929Z,18.97
2022-10-07T13:19:20.049Z,19.05
2022-10-07T13:21:58.842Z,19.00
2022-10-07T13:24:28.157Z,19.01
2022-10-07T13:26:56.506Z,18.94
2022-10-07T13:29:28.866Z,18.99
2022-10-07T13:32:08.667Z,19.12
2022-10-07T13:34:36.987Z,19.15
2022-10-07T13:37:26.312Z,19.14
2022-10-07T13:39:54.525Z,19.42
2022-10-07T13:42:26.694Z,19.22
2022-10-07T13:45:00.374Z,19.31
2022-10-07T13:47:33.884Z,19.46
2022-10-07T13:50:03.587Z,19.33
2022-10-07T13:52:37.174Z,19.50
2022-10-07T13:55:20.981Z,19.68
2022-10-07T13:57:49.596Z,19.75
2022-10-07T14:00:18.486Z,19.48
2022-10-07T14:02:48.339Z,19.61
2022-10-07T14:05:21.266Z,19.59
2022-10-07T14:07:55.355Z,19.16
2022-10-07T14:10:27.010Z,19.57
2022-10-07T14:12:58.574Z,19.60
2022-10-07T14:15:29.122Z,19.39
2022-10-07T14:18:00.238Z,19.44
2022-10-07T14:20:31.914Z,19.72
2022-10-07T14:23:03.779Z,19.50
2022-10-07T14:25:35.846Z,19.71
2022-10-07T14:28:16.257Z,19.27
2022-10-07T14:31:03.474Z,18.87
2022-10-07T14:34:00.137Z,18.83
2022-10-07T14:36:28.513Z,18.99
2022-10-07T14:39:03.344Z,19.14
2022-10-07T14:41:32.651Z,18.84
2022-10-07T14:44:03.989Z,18.44
2022-10-07T14:46:32.281Z,18.81
2022-10-07T14:49:00.613Z,19.30
2022-10-07T14:51:29.937Z,19.43
2022-10-07T14:54:05.129Z,19.55
2022-10-07T14:56:40.603Z,19.82
2022-10-07T14:59:14.866Z,20.11
2022-10-07T15:01:43.219Z,19.85
2022-10-07T15:04:12.155Z,19.81
2022-10-07T15:06:40.733Z,19.13
2022-10-07T15:09:12.946Z,18.51
2022-10-07T15:11:42.346Z,17.99
2022-10-07T15:14:12.206Z,17.73
2022-10-07T15:16:41.649Z,17.74
2022-10-07T15:19:09.992Z,17.60
2022-10-07T15:21:38.242Z,17.44
2022-10-07T15:24:06.575Z,17.35
2022-10-07T15:26:36.196Z,17.33
2022-10-07T15:29:07.883Z,17.36
2022-10-07T15:31:37.346Z,17.24
2022-10-07T15:34:05.845Z,17.06
2022-10-07T15:36:34.023Z,17.00
2022-10-07T15:39:02.418Z,16.96
2022-10-07T15:41:36.949Z,16.75
2022-10-07T15:44:07.282Z,16.70
2022-10-07T15:46:36.054Z,16.73
2022-10-07T15:49:05.650Z,16.62
2022-10-07T15:51:36.318Z,16.56
2022-10-07T15:54:06.624Z,16.47
2022-10-07T15:56:36.281Z,16.36
2022-10-07T15:59:04.538Z,16.10
2022-10-07T16:01:35.072Z,16.12
2022-10-07T16:04:05.560Z,16.16
2022-10-07T16:06:35.767Z,16.17
2022-10-07T16:09:04.896Z,16.04
2022-10-07T16:11:34.897Z,15.88
2022-10-07T16:14:04.813Z,15.86
2022-10-07T16:16:33.730Z,15.93
2022-10-07T16:19:02.258Z,16.01
2022-10-07T16:21:32.064Z,15.90
2022-10-07T16:24:04.391Z,15.77
2022-10-07T16:26:34.460Z,15.67
2022-10-07T16:29:23.657Z,15.55
2022-10-07T16:31:58.843Z,15.45
2022-10-07T16:34:28.743Z,15.31
2022-10-07T16:36:57.865Z,15.36
2022-10-07T16:39:26.556Z,15.27
2022-10-07T16:41:56.473Z,15.26
2022-10-07T16:44:26.117Z,15.23
2022-10-07T16:46:56.966Z,15.11
2022-10-07T16:49:27.451Z,14.97
2022-10-07T16:51:56.132Z,14.93
2022-10-07T16:54:24.415Z,14.85
2022-10-07T16:56:53.414Z,14.73
2022-10-07T16:59:24.328Z,14.63
2022-10-07T17:01:56.274Z,14.53
2022-10-07T17:04:25.373Z,14.42
2022-10-07T17:06:54.181Z,14.37
2022-10-07T17:09:24.611Z,14.36
2022-10-07T17:11:53.023Z,14.28
2022-10-07T17:14:23.074Z,14.22
2022-10-07T17:16:52.616Z,14.23
2022-10-07T17:19:23.655Z,14.28
2022-10-07T17:21:53.322Z,14.25
2022-10-07T17:24:23.171Z,14.19
2022-10-07T17:26:52.958Z,14.06
2022-10-07T17:29:23.397Z,13.98
2022-10-07T17:31:51.958Z,13.93
2022-10-07T17:34:22.443Z,13.85
2022-10-07T17:36:51.294Z,13.84
2022-10-07T17:39:20.101Z,13.78
2022-10-07T17:41:49.239Z,13.75
2022-10-07T17:44:17.612Z,13.74
2022-10-07T17:46:48.926Z,13.84
2022-10-07T17:49:17.268Z,13.74
2022-10-07T17:51:47.044Z,13.69
2022-10-07T17:54:17.793Z,13.73
2022-10-07T17:56:47.801Z,13.73
2022-10-07T17:59:16.574Z,13.63
2022-10-07T18:01:45.550Z,13.62
2022-10-07T18:04:17.954Z,13.56
2022-10-07T18:06:50.711Z,13.73
2022-10-07T18:09:19.556Z,13.79
2022-10-07T18:12:02.015Z,13.79
2022-10-07T18:14:52.614Z,13.81
2022-10-07T18:17:22.337Z,13.76
2022-10-07T18:19:50.492Z,13.76
2022-10-07T18:22:20.443Z,13.69
2022-10-07T18:24:48.937Z,13.63
2022-10-07T18:27:17.110Z,13.63
2022-10-07T18:29:45.873Z,13.51
2022-10-07T18:32:14.024Z,13.52
2022-10-07T18:34:42.460Z,13.45
2022-10-07T18:37:10.649Z,13.49
2022-10-07T18:39:40.678Z,13.48
2022-10-07T18:42:08.918Z,13.48
2022-10-07T18:44:37.062Z,13.46
2022-10-07T18:47:05.294Z,13.43
2022-10-07T18:49:33.472Z,13.49
2022-10-07T18:52:01.771Z,13.39
2022-10-07T18:54:30.025Z,13.43
2022-10-07T18:56:59.531Z,13.45
2022-10-07T18:59:27.714Z,13.43
2022-10-07T19:01:55.965Z,13.54
2022-10-07T19:04:24.419Z,13.54
2022-10-07T19:06:52.647Z,13.50
2022-10-07T19:09:23.364Z,13.56
2022-10-07T19:11:51.718Z,13.53
2022-10-07T19:14:20.566Z,13.45
2022-10-07T19:16:50.079Z,13.44
2022-10-07T19:19:20.068Z,13.35
2022-10-07T19:21:49.570Z,13.33
2022-10-07T19:24:18.192Z,13.38
2022-10-07T19:26:48.470Z,13.35
2022-10-07T19:29:17.983Z,13.36
2022-10-07T19:31:50.080Z,13.33
2022-10-07T19:34:23.619Z,13.25
2022-10-07T19:36:52.163Z,13.27
2022-10-07T19:39:22.438Z,13.29
2022-10-07T19:41:51.356Z,13.31
2022-10-07T19:44:19.896Z,13.23
2022-10-07T19:46:51.359Z,13.17
2022-10-07T19:49:19.509Z,13.08
2022-10-07T19:51:47.747Z,13.06
2022-10-07T19:54:15.950Z,13.00
2022-10-07T19:56:45.188Z,12.95
2022-10-07T19:59:14.995Z,12.93
2022-10-07T20:01:45.345Z,13.01
2022-10-07T20:04:17.601Z,12.94
2022-10-07T20:06:46.211Z,12.89
2022-10-07T20:09:17.298Z,12.84
2022-10-07T20:11:46.771Z,12.82
2022-10-07T20:14:16.155Z,12.84
2022-10-07T20:16:44.572Z,12.79
2022-10-07T20:19:19.607Z,12.81
2022-10-07T20:21:48.640Z,12.86
2022-10-07T20:24:17.878Z,12.86
2022-10-07T20:26:46.443Z,12.93
2022-10-07T20:29:16.571Z,12.93
2022-10-07T20:31:45.982Z,12.97
2022-10-07T20:34:18.881Z,13.06
2022-10-07T20:36:50.268Z,13.10
2022-10-07T20:39:37.815Z,13.08
2022-10-07T20:42:22.200Z,13.09
2022-10-07T20:44:51.640Z,13.06
2022-10-07T20:47:21.459Z,12.99
2022-10-07T20:49:51.773Z,12.93
2022-10-07T20:52:21.765Z,12.96
2022-10-07T20:54:50.593Z,12.99
2022-10-07T20:57:21.475Z,12.99
2022-10-07T20:59:50.413Z,12.93
2022-10-07T21:02:21.649Z,12.88
2022-10-07T21:04:51.373Z,12.85
2022-10-07T21:07:20.040Z,12.89
2022-10-07T21:09:48.798Z,12.88
2022-10-07T21:12:18.520Z,12.77
2022-10-07T21:14:48.724Z,12.71
2022-10-07T21:17:17.689Z,12.61
2022-10-07T21:19:45.976Z,12.67
2022-10-07T21:22:15.796Z,12.70
2022-10-07T21:24:43.949Z,12.69
2022-10-07T21:27:12.170Z,12.74
2022-10-07T21:29:41.279Z,12.63
2022-10-07T21:32:10.581Z,12.57
2022-10-07T21:34:39.653Z,12.50
2022-10-07T21:37:08.030Z,12.52
2022-10-07T21:39:38.249Z,12.57
2022-10-07T21:42:06.694Z,12.57
2022-10-07T21:44:35.734Z,12.59
2022-10-07T21:47:05.066Z,12.57
2022-10-07T21:49:33.354Z,12.48
2022-10-07T21:52:04.171Z,12.44
2022-10-07T21:54:32.292Z,12.38
2022-10-07T21:57:01.877Z,12.43
2022-10-07T21:59:33.552Z,12.47
2022-10-07T22:02:02.233Z,12.46
2022-10-07T22:04:31.097Z,12.48
2022-10-07T22:07:16.878Z,12.52
2022-10-07T22:09:45.125Z,12.52
2022-10-07T22:12:15.742Z,12.43
2022-10-07T22:14:44.634Z,12.40
2022-10-07T22:17:14.287Z,12.36
2022-10-07T22:19:42.552Z,12.41
2022-10-07T22:22:11.119Z,12.42
2022-10-07T22:24:39.383Z,12.50
2022-10-07T22:27:07.582Z,12.49
2022-10-07T22:29:38.309Z,12.45
2022-10-07T22:32:06.638Z,12.43
2022-10-07T22:34:52.349Z,12.41
2022-10-07T22:37:20.630Z,12.45
2022-10-07T22:39:48.949Z,12.37
2022-10-07T22:42:17.175Z,12.43
2022-10-07T22:44:46.725Z,12.43
2022-10-07T22:47:16.374Z,12.42
2022-10-07T22:49:45.254Z,12.48
2022-10-07T22:52:13.433Z,12.52
2022-10-07T22:54:41.708Z,12.62
2022-10-07T22:57:09.887Z,12.61
2022-10-07T22:59:38.848Z,12.74
2022-10-07T23:02:09.935Z,12.78
2022-10-07T23:04:38.143Z,12.84
2022-10-07T23:07:06.339Z,12.88
2022-10-07T23:09:34.883Z,12.88
2022-10-07T23:12:04.789Z,12.86
2022-10-07T23:14:33.132Z,12.88
2022-10-07T23:17:01.401Z,12.94
2022-10-07T23:19:31.059Z,12.96
2022-10-07T23:22:00.227Z,12.97
2022-10-07T23:24:29.054Z,12.99
2022-10-07T23:26:57.425Z,12.97
2022-10-07T23:29:26.621Z,12.91
2022-10-07T23:31:54.778Z,12.93
2022-10-07T23:34:23.355Z,12.94
2022-10-07T23:36:55.259Z,12.88
2022-10-07T23:39:23.614Z,12.88
2022-10-07T23:41:52.010Z,12.88
2022-10-07T23:44:20.281Z,12.96
2022-10-07T23:46:48.839Z,13.03
2022-10-07T23:49:20.104Z,13.01
2022-10-07T23:51:48.989Z,13.05
2022-10-07T23:54:18.476Z,13.09
2022-10-07T23:56:46.650Z,13.05
2022-10-07T23:59:14.853Z,13.05
